Time;durP1;ratioP1;P1;durP2;ratioP2;P2;SDS_P1;SDS_P2;PMS_P1;PMS_P2;Temp;Humidity;BMP_temperature;BMP_pressure;BME280_temperature;BME280_humidity;BME280_pressure;Samples;Min_cycle;Max_cycle;Signal;HPM_P1;HPM_P2
2022/09/07 00:02:01;;;;;;;;;;;;;;;23.46;51.26;101162.59;5013787;28;5151;-65
2022/09/07 00:04:28;;;;;;;;;;;;;;;23.46;50.97;101165.50;5012844;28;5500;-65
2022/09/07 00:06:55;;;;;;;;;;;;;;;23.46;51.21;101153.94;5013612;28;4306;-65
2022/09/07 00:09:21;;;;;;;;;;;;;;;23.44;51.01;101153.84;5012851;28;4163;-65
2022/09/07 00:11:47;;;;;;;;;;;;;;;23.42;51.02;101152.34;5011453;28;5584;-66
2022/09/07 00:14:14;;;;;;;;;;;;;;;23.45;51.04;101152.44;5014729;28;4288;-65
2022/09/07 00:16:40;;;;;;;;;;;;;;;23.45;51.29;101150.28;5011640;28;4329;-65
2022/09/07 00:19:07;;;;;;;;;;;;;;;23.44;51.45;101153.84;5010450;28;6240;-66
2022/09/07 00:21:33;;;;;;;;;;;;;;;23.44;51.12;101157.47;5013742;28;4140;-66
2022/09/07 00:23:59;;;;;;;;;;;;;;;23.43;50.99;101147.31;5008175;28;4289;-65
2022/09/07 00:26:27;;;;;;;;;;;;;;;23.42;51.28;101152.34;5013785;28;5244;-66
2022/09/07 00:29:00;;;;;;;;;;;;;;;23.44;51.01;101153.84;5014341;28;4262;-66
2022/09/07 00:31:26;;;;;;;;;;;;;;;23.42;51.31;101146.56;5011525;28;4272;-65
2022/09/07 00:33:53;;;;;;;;;;;;;;;23.42;51.30;101146.56;5010615;28;5442;-66
2022/09/07 00:36:20;;;;;;;;;;;;;;;23.42;51.16;101140.78;5007900;28;4168;-66
2022/09/07 00:38:46;;;;;;;;;;;;;;;23.42;50.94;101132.13;5009310;28;4236;-66
2022/09/07 00:41:12;;;;;;;;;;;;;;;23.41;51.05;101133.53;5009459;28;4248;-66
2022/09/07 00:43:40;;;;;;;;;;;;;;;23.41;51.34;101142.22;5004908;28;4241;-66
2022/09/07 00:46:08;;;;;;;;;;;;;;;23.42;51.19;101152.34;5010990;28;4213;-65
2022/09/07 00:48:39;;;;;;;;;;;;;;;23.42;50.98;101158.13;5044362;28;4132;-66
2022/09/07 00:51:05;;;;;;;;;;;;;;;23.41;51.08;101145.09;5039890;28;5544;-65
2022/09/07 00:53:33;;;;;;;;;;;;;;;23.41;51.34;101142.22;5025169;28;5481;-66
2022/09/07 00:55:59;;;;;;;;;;;;;;;23.40;51.11;101137.81;5019737;28;5495;-66
2022/09/07 00:58:26;;;;;;;;;;;;;;;23.40;51.04;101137.09;5009656;28;5576;-65
2022/09/07 01:00:54;;;;;;;;;;;;;;;23.40;51.00;101140.72;5041674;28;4220;-66
2022/09/07 01:03:24;;;;;;;;;;;;;;;23.40;51.35;101137.09;5011048;28;4249;-65
2022/09/07 01:06:09;;;;;;;;;;;;;;;23.39;51.40;101130.56;5041359;28;4496;-66
2022/09/07 01:08:35;;;;;;;;;;;;;;;23.39;51.12;101129.84;5014692;28;4071;-65
2022/09/07 01:11:01;;;;;;;;;;;;;;;23.38;51.11;101123.28;5005078;28;4227;-65
2022/09/07 01:13:28;;;;;;;;;;;;;;;23.39;51.29;101118.28;5014076;28;5526;-66
2022/09/07 01:15:54;;;;;;;;;;;;;;;23.39;51.18;101119.00;5008797;28;4158;-65
2022/09/07 01:18:34;;;;;;;;;;;;;;;23.38;51.32;101116.78;5010943;28;4427;-65
2022/09/07 01:21:00;;;;;;;;;;;;;;;23.38;51.05;101116.78;5035215;28;4229;-65
2022/09/07 01:23:32;;;;;;;;;;;;;;;23.37;51.31;101116.03;5009837;28;4062;-65
2022/09/07 01:26:05;;;;;;;;;;;;;;;23.37;51.16;101107.38;5041404;28;5179;-65
2022/09/07 01:28:31;;;;;;;;;;;;;;;23.37;51.33;101115.31;5041954;28;4242;-65
2022/09/07 01:30:58;;;;;;;;;;;;;;;23.37;51.32;101110.25;5004821;28;4195;-66
2022/09/07 01:33:42;;;;;;;;;;;;;;;23.36;51.31;101117.44;5023151;28;5307;-65
2022/09/07 01:36:16;;;;;;;;;;;;;;;23.36;51.38;101102.97;5026150;28;4304;-65
2022/09/07 01:38:51;;;;;;;;;;;;;;;23.37;51.32;101113.16;5037864;28;4228;-65
2022/09/07 01:41:20;;;;;;;;;;;;;;;23.37;51.29;101115.31;5034696;28;4365;-66
2022/09/07 01:43:49;;;;;;;;;;;;;;;23.37;51.28;101109.53;5037082;28;4209;-67
2022/09/07 01:46:35;;;;;;;;;;;;;;;23.36;51.35;101114.53;5043887;28;4243;-66
2022/09/07 01:49:03;;;;;;;;;;;;;;;23.36;51.01;101114.53;5012010;28;4197;-65
2022/09/07 01:51:30;;;;;;;;;;;;;;;23.36;51.03;101126.09;5023544;28;4245;-65
2022/09/07 01:53:58;;;;;;;;;;;;;;;23.35;51.33;101123.88;5012879;28;5237;-66
2022/09/07 01:56:32;;;;;;;;;;;;;;;23.35;51.01;101118.84;5029907;28;4145;-65
2022/09/07 01:59:08;;;;;;;;;;;;;;;23.35;51.28;101118.84;5038911;28;4264;-66
2022/09/07 02:01:37;;;;;;;;;;;;;;;23.34;51.30;101111.59;5044743;28;4246;-65
2022/09/07 02:04:05;;;;;;;;;;;;;;;23.34;51.34;101114.50;5012979;28;4186;-66
2022/09/07 02:06:34;;;;;;;;;;;;;;;23.34;51.29;101117.38;5042964;28;4226;-65
2022/09/07 02:09:04;;;;;;;;;;;;;;;23.36;51.03;101119.59;5013004;28;4274;-65
2022/09/07 02:11:37;;;;;;;;;;;;;;;23.34;51.35;101105.81;5043933;28;4147;-65
2022/09/07 02:14:15;;;;;;;;;;;;;;;23.34;51.26;101105.81;5038374;28;5270;-66
2022/09/07 02:16:45;;;;;;;;;;;;;;;23.34;51.18;101105.06;5010298;28;4252;-66
2022/09/07 02:19:14;;;;;;;;;;;;;;;23.34;51.04;101105.81;5031661;28;4200;-65
2022/09/07 02:21:42;;;;;;;;;;;;;;;23.33;51.03;101106.47;5033618;28;4238;-65
2022/09/07 02:24:10;;;;;;;;;;;;;;;23.34;51.21;101099.28;5046599;28;4191;-66
2022/09/07 02:26:37;;;;;;;;;;;;;;;23.32;50.97;101096.31;5029116;28;4233;-65
2022/09/07 02:29:04;;;;;;;;;;;;;;;23.33;51.29;101097.81;5033502;28;4246;-65
2022/09/07 02:31:30;;;;;;;;;;;;;;;23.32;51.08;101097.06;5050229;28;4166;-65
2022/09/07 02:33:56;;;;;;;;;;;;;;;23.33;51.01;101100.69;5030623;28;4216;-66
2022/09/07 02:36:23;;;;;;;;;;;;;;;23.32;50.93;101096.31;5034524;28;3976;-65
2022/09/07 02:38:50;;;;;;;;;;;;;;;23.33;50.90;101094.91;5043469;28;5289;-65
2022/09/07 02:41:29;;;;;;;;;;;;;;;23.31;51.05;101098.47;5033356;28;5343;-66
2022/09/07 02:43:56;;;;;;;;;;;;;;;23.31;50.99;101107.13;5031297;28;4341;-65
2022/09/07 02:46:48;;;;;;;;;;;;;;;23.32;51.16;101111.53;5028543;28;4150;-65
2022/09/07 02:49:34;;;;;;;;;;;;;;;23.30;50.96;101093.38;5019137;28;5516;-66
2022/09/07 02:52:06;;;;;;;;;;;;;;;23.29;51.22;101095.50;5030334;28;4215;-66
2022/09/07 02:54:32;;;;;;;;;;;;;;;23.30;51.22;101099.88;5026907;28;4245;-65
2022/09/07 02:57:19;;;;;;;;;;;;;;;23.31;51.33;101100.63;5028445;28;5283;-66
2022/09/07 02:59:45;;;;;;;;;;;;;;;23.28;51.22;101096.91;5022738;28;4315;-66
2022/09/07 03:02:19;;;;;;;;;;;;;;;23.28;51.49;101096.91;5028153;28;4249;-65
2022/09/07 03:04:48;;;;;;;;;;;;;;;23.28;51.24;101102.69;5031451;28;5470;-66
2022/09/07 03:07:18;;;;;;;;;;;;;;;23.28;51.45;101102.69;5041211;28;4199;-65
2022/09/07 03:09:49;;;;;;;;;;;;;;;23.27;51.55;101095.41;5036024;28;4411;-65
2022/09/07 03:12:15;;;;;;;;;;;;;;;23.28;51.15;101094.03;5044486;28;4906;-65
2022/09/07 03:14:42;;;;;;;;;;;;;;;23.28;51.43;101096.19;5044871;28;4327;-65
2022/09/07 03:17:08;;;;;;;;;;;;;;;23.27;51.42;101089.63;5034612;28;5230;-65
2022/09/07 03:19:34;;;;;;;;;;;;;;;23.28;51.46;101091.13;5029567;28;4258;-65
2022/09/07 03:22:01;;;;;;;;;;;;;;;23.27;51.09;101089.63;5031479;28;4471;-63
2022/09/07 03:24:27;;;;;;;;;;;;;;;23.25;51.42;101083.81;5029039;28;4145;-63
2022/09/07 03:26:54;;;;;;;;;;;;;;;23.19;50.74;101086.44;5015591;28;4522;-65
2022/09/07 03:29:20;;;;;;;;;;;;;;;23.08;49.79;101085.31;5009706;28;4487;-64
2022/09/07 03:31:46;;;;;;;;;;;;;;;23.04;49.29;101072.84;5010608;28;4319;-64
2022/09/07 03:34:13;;;;;;;;;;;;;;;23.00;48.06;101074.19;5008755;28;4449;-65
2022/09/07 03:36:39;;;;;;;;;;;;;;;22.92;47.57;101068.06;5003799;28;4260;-64
2022/09/07 03:39:06;;;;;;;;;;;;;;;22.94;47.35;101068.13;5008904;28;5469;-65
2022/09/07 03:41:32;;;;;;;;;;;;;;;22.92;47.21;101050.72;5007094;28;4232;-64
2022/09/07 03:44:05;;;;;;;;;;;;;;;22.89;46.68;101060.72;5008387;28;5280;-64
2022/09/07 03:46:31;;;;;;;;;;;;;;;22.88;46.41;101070.03;5001671;28;4091;-64
2022/09/07 03:48:57;;;;;;;;;;;;;;;22.90;46.18;101064.34;5009691;28;4612;-64
2022/09/07 03:51:24;;;;;;;;;;;;;;;22.85;46.10;101062.72;5010186;28;4147;-64
2022/09/07 03:53:50;;;;;;;;;;;;;;;22.83;45.62;101060.47;5018204;28;5397;-64
2022/09/07 03:56:18;;;;;;;;;;;;;;;22.83;45.38;101059.75;5026672;28;4189;-64
2022/09/07 03:58:44;;;;;;;;;;;;;;;22.82;45.12;101043.84;5030488;28;5276;-64
2022/09/07 04:01:12;;;;;;;;;;;;;;;22.80;45.41;101053.16;5041319;28;4198;-64
2022/09/07 04:03:38;;;;;;;;;;;;;;;22.80;45.13;101047.38;5030178;28;4575;-64
2022/09/07 04:06:04;;;;;;;;;;;;;;;22.78;44.70;101041.53;5029894;28;4261;-64
2022/09/07 04:08:32;;;;;;;;;;;;;;;22.76;44.69;101038.56;5028798;28;4245;-64
2022/09/07 04:10:59;;;;;;;;;;;;;;;22.77;44.42;101042.94;5024702;28;5236;-64
2022/09/07 04:13:25;;;;;;;;;;;;;;;22.75;44.22;101037.09;5032043;28;4210;-64
2022/09/07 04:15:52;;;;;;;;;;;;;;;22.75;44.05;101032.03;5030678;28;4327;-64
2022/09/07 04:18:19;;;;;;;;;;;;;;;22.76;43.81;101041.44;5029625;28;4147;-64
2022/09/07 04:20:45;;;;;;;;;;;;;;;22.75;44.07;101042.84;5027856;28;5277;-65
2022/09/07 04:23:12;;;;;;;;;;;;;;;22.75;44.11;101045.75;5033420;28;4144;-64
2022/09/07 04:25:45;;;;;;;;;;;;;;;22.71;44.07;101054.25;5027548;28;4124;-64
2022/09/07 04:28:12;;;;;;;;;;;;;;;22.72;43.80;101055.72;5021957;28;4068;-64
2022/09/07 04:30:38;;;;;;;;;;;;;;;22.72;44.05;101061.47;5028585;28;4244;-64
2022/09/07 04:33:04;;;;;;;;;;;;;;;22.69;43.89;101054.88;5030620;28;4086;-64
2022/09/07 04:35:34;;;;;;;;;;;;;;;22.71;43.65;101048.47;5033156;28;4400;-64
2022/09/07 04:38:00;;;;;;;;;;;;;;;22.70;43.58;101044.84;5030008;28;5071;-64
2022/09/07 04:40:27;;;;;;;;;;;;;;;22.66;43.38;101058.38;5029258;28;4218;-64
2022/09/07 04:42:53;;;;;;;;;;;;;;;22.65;43.53;101051.09;5033398;28;4168;-64
2022/09/07 04:45:19;;;;;;;;;;;;;;;22.64;43.39;101033.03;5031996;28;4232;-64
2022/09/07 04:47:46;;;;;;;;;;;;;;;22.63;43.38;101036.59;5032622;28;4242;-64
2022/09/07 04:50:13;;;;;;;;;;;;;;;22.61;43.38;101039.38;5029280;28;4189;-65
2022/09/07 04:52:40;;;;;;;;;;;;;;;22.57;43.40;101039.97;5027626;28;4591;-64
2022/09/07 04:55:06;;;;;;;;;;;;;;;22.63;43.70;101031.56;5029738;28;4182;-63
2022/09/07 04:57:33;;;;;;;;;;;;;;;22.49;43.37;101033.88;5027797;28;4232;-69
2022/09/07 04:59:59;;;;;;;;;;;;;;;22.21;43.00;101027.66;5026361;28;4114;-69
2022/09/07 05:02:25;;;;;;;;;;;;;;;22.18;42.92;101023.94;5034027;28;4150;-68
2022/09/07 05:04:52;;;;;;;;;;;;;;;22.23;44.00;101024.91;5042969;28;4258;-67
2022/09/07 05:07:18;;;;;;;;;;;;;;;22.39;43.31;101022.66;5039166;28;4348;-67
2022/09/07 05:09:45;;;;;;;;;;;;;;;22.30;43.35;101020.84;5039421;28;5470;-68
2022/09/07 05:12:12;;;;;;;;;;;;;;;22.16;43.79;101027.50;5016450;28;4285;-64
2022/09/07 05:14:38;;;;;;;;;;;;;;;22.34;43.48;101023.91;5015415;28;5282;-64
2022/09/07 05:17:04;;;;;;;;;;;;;;;22.47;43.39;101025.13;5016627;28;4224;-64
2022/09/07 05:19:31;;;;;;;;;;;;;;;22.55;43.41;101017.53;5021883;28;5553;-63
2022/09/07 05:21:57;;;;;;;;;;;;;;;22.62;43.51;101017.78;5020359;28;5790;-65
2022/09/07 05:24:25;;;;;;;;;;;;;;;22.67;43.64;101014.41;5020921;28;4214;-63
2022/09/07 05:26:52;;;;;;;;;;;;;;;22.70;43.98;101026.75;5015182;28;5255;-67
2022/09/07 05:29:18;;;;;;;;;;;;;;;22.38;43.28;101024.81;5012481;28;5368;-70
2022/09/07 05:32:04;;;;;;;;;;;;;;;22.37;43.42;101029.09;5010412;28;4379;-62
2022/09/07 05:34:31;;;;;;;;;;;;;;;22.38;43.62;101029.84;5020826;28;4311;-70
2022/09/07 05:36:58;;;;;;;;;;;;;;;22.36;44.41;101029.75;5002992;28;4608;-73
2022/09/07 05:39:24;;;;;;;;;;;;;;;22.30;42.77;101029.50;5018506;28;4172;-79
2022/09/07 05:41:51;;;;;;;;;;;;;;;22.30;43.36;101023.75;5018219;28;4264;-76
2022/09/07 05:44:17;;;;;;;;;;;;;;;22.23;43.27;101019.13;5024139;28;4276;-73
2022/09/07 05:47:03;;;;;;;;;;;;;;;22.30;43.27;101017.97;5028660;28;4116;-75
2022/09/07 05:49:31;;;;;;;;;;;;;;;22.52;43.05;101021.75;5025881;28;4219;-76
2022/09/07 05:51:57;;;;;;;;;;;;;;;22.72;42.56;101027.59;5022102;28;4312;-76
2022/09/07 05:54:24;;;;;;;;;;;;;;;22.90;42.51;101018.88;5021006;28;4194;-75
2022/09/07 05:56:50;;;;;;;;;;;;;;;23.00;42.38;101030.88;5022250;28;5334;-73
2022/09/07 05:59:17;;;;;;;;;;;;;;;23.11;42.39;101025.47;5025960;28;4231;-70
2022/09/07 06:01:43;;;;;;;;;;;;;;;23.16;42.65;101022.09;5021843;28;4265;-72
2022/09/07 06:04:09;;;;;;;;;;;;;;;23.10;42.24;101030.50;5021829;28;4175;-76
2022/09/07 06:06:37;;;;;;;;;;;;;;;22.75;43.08;101031.31;5015378;28;4336;-72
2022/09/07 06:09:04;;;;;;;;;;;;;;;22.72;43.38;101026.84;5016948;28;4176;-73
2022/09/07 06:11:30;;;;;;;;;;;;;;;22.65;44.02;101033.78;5021718;28;4114;-72
2022/09/07 06:13:56;;;;;;;;;;;;;;;22.61;44.28;101025.72;5014829;28;4249;-72
2022/09/07 06:16:23;;;;;;;;;;;;;;;22.64;44.36;101024.38;5014199;28;4061;-72
2022/09/07 06:18:49;;;;;;;;;;;;;;;22.63;44.25;101027.94;5016758;28;4178;-72
2022/09/07 06:21:19;;;;;;;;;;;;;;;22.68;44.32;101020.94;5018501;28;3968;-72
2022/09/07 06:23:46;;;;;;;;;;;;;;;22.66;44.22;101023.72;5013644;28;5581;-73
2022/09/07 06:26:12;;;;;;;;;;;;;;;22.65;44.29;101019.34;5013270;28;4155;-73
2022/09/07 06:28:40;;;;;;;;;;;;;;;22.68;44.42;101020.94;5015685;28;4167;-74
2022/09/07 06:31:07;;;;;;;;;;;;;;;22.73;44.50;101022.56;5014918;28;5357;-74
2022/09/07 06:33:34;;;;;;;;;;;;;;;22.71;44.52;101026.09;5016993;28;4172;-74
2022/09/07 06:36:01;;;;;;;;;;;;;;;22.72;44.55;101021.84;5017046;28;4175;-73
2022/09/07 06:38:28;;;;;;;;;;;;;;;22.69;45.03;101023.13;5017395;28;4361;-73
2022/09/07 06:41:03;;;;;;;;;;;;;;;22.69;44.76;101007.97;5018503;28;6406;-68
2022/09/07 06:43:50;;;;;;;;;;;;;;;22.72;44.74;101010.28;5015871;28;4078;-69
2022/09/07 06:46:16;;;;;;;;;;;;;;;22.75;45.01;101005.31;5016314;28;4266;-70
2022/09/07 06:49:02;;;;;;;;;;;;;;;22.76;44.83;101015.47;5018106;28;4197;-68
2022/09/07 06:51:30;;;;;;;;;;;;;;;22.79;44.58;101011.25;5018404;28;4175;-68
2022/09/07 06:53:57;;;;;;;;;;;;;;;22.78;44.67;101007.63;5017387;28;4310;-74
2022/09/07 06:56:43;;;;;;;;;;;;;;;22.62;44.67;100994.72;5001647;28;6472;-75
2022/09/07 06:59:09;;;;;;;;;;;;;;;21.25;46.86;100999.06;5016080;28;5252;-72
2022/09/07 07:01:36;;;;;;;;;;;;;;;20.28;48.56;100998.84;5029679;28;4006;-73
2022/09/07 07:04:02;;;;;;;;;;;;;;;21.41;47.02;100995.44;5012502;28;4364;-70
2022/09/07 07:06:38;;;;;;;;;;;;;;;22.51;45.06;100993.56;5009068;28;4332;-74
2022/09/07 07:09:04;;;;;;;;;;;;;;;23.03;43.98;100996.28;5014078;28;4182;-72
2022/09/07 07:11:31;;;;;;;;;;;;;;;23.20;44.12;100986.81;5013200;28;5590;-76
2022/09/07 07:13:58;;;;;;;;;;;;;;;23.36;44.02;100987.41;5010196;28;5397;-71
2022/09/07 07:16:25;;;;;;;;;;;;;;;23.48;43.87;100997.91;5012866;28;4431;-73
2022/09/07 07:18:54;;;;;;;;;;;;;;;23.57;43.92;100999.69;5006727;28;4191;-80
2022/09/07 07:21:20;;;;;;;;;;;;;;;23.59;44.15;101002.66;5005803;28;5404;-75
2022/09/07 07:23:50;;;;;;;;;;;;;;;23.50;44.28;100998.00;5010537;28;4417;-74
2022/09/07 07:26:17;;;;;;;;;;;;;;;23.52;44.46;101003.84;5013687;28;4274;-80
2022/09/07 07:28:44;;;;;;;;;;;;;;;23.50;45.19;101007.41;5015346;28;4219;-71
2022/09/07 07:31:29;;;;;;;;;;;;;;;23.48;45.57;101010.22;5030995;28;4175;-71
2022/09/07 07:33:55;;;;;;;;;;;;;;;23.49;45.99;101008.06;5026183;28;4119;-73
2022/09/07 07:36:22;;;;;;;;;;;;;;;23.47;45.69;100999.34;5031091;28;4172;-72
2022/09/07 07:38:49;;;;;;;;;;;;;;;23.62;45.03;100998.44;5029104;28;5488;-70
2022/09/07 07:41:25;;;;;;;;;;;;;;;23.56;45.12;100986.66;5030043;28;4250;-71
2022/09/07 07:44:12;;;;;;;;;;;;;;;23.27;45.78;100991.41;5024831;28;4275;-62
2022/09/07 07:46:39;;;;;;;;;;;;;;;23.57;45.45;100988.13;5033234;28;4199;-61
2022/09/07 07:49:05;;;;;;;;;;;;;;;23.68;45.30;100984.19;5026203;28;6479;-61
2022/09/07 07:51:31;;;;;;;;;;;;;;;23.74;44.96;100990.19;5026550;28;4256;-61
2022/09/07 07:54:18;;;;;;;;;;;;;;;23.71;45.22;100979.97;5026497;28;4189;-60
2022/09/07 07:56:44;;;;;;;;;;;;;;;23.71;45.44;100984.97;5027174;28;5388;-60
2022/09/07 07:59:10;;;;;;;;;;;;;;;23.56;46.25;100986.66;5031851;28;4258;-62
2022/09/07 08:01:42;;;;;;;;;;;;;;;23.62;45.90;101001.31;5026738;28;4214;-60
2022/09/07 08:04:09;;;;;;;;;;;;;;;23.73;45.67;101006.06;5025939;28;4181;-61
2022/09/07 08:06:36;;;;;;;;;;;;;;;23.58;46.13;101001.19;5028492;28;5290;-63
2022/09/07 08:09:02;;;;;;;;;;;;;;;23.73;45.60;100993.72;5002903;28;4192;-61
2022/09/07 08:11:30;;;;;;;;;;;;;;;23.82;45.46;100987.59;5008962;28;4199;-61
2022/09/07 08:13:58;;;;;;;;;;;;;;;23.81;45.62;100989.00;5004573;28;4286;-63
2022/09/07 08:16:25;;;;;;;;;;;;;;;23.75;45.77;100991.66;5015727;28;5426;-60
2022/09/07 08:18:52;;;;;;;;;;;;;;;23.77;45.78;100983.06;5008868;28;4264;-61
2022/09/07 08:21:18;;;;;;;;;;;;;;;23.78;45.68;100978.03;5005662;28;4288;-60
2022/09/07 08:23:45;;;;;;;;;;;;;;;23.80;45.66;100981.00;5037450;28;3955;-61
2022/09/07 08:26:11;;;;;;;;;;;;;;;23.81;45.82;100980.31;5041468;28;4167;-60
2022/09/07 08:28:39;;;;;;;;;;;;;;;23.83;45.77;100973.88;5009888;28;4170;-61
2022/09/07 08:31:06;;;;;;;;;;;;;;;23.85;45.74;100971.06;5011917;28;5507;-62
2022/09/07 08:33:36;;;;;;;;;;;;;;;23.86;45.85;100966.00;5010055;28;5597;-64
2022/09/07 08:36:03;;;;;;;;;;;;;;;23.91;45.84;100968.34;5008346;28;4218;-61
2022/09/07 08:38:30;;;;;;;;;;;;;;;23.91;45.91;100968.34;5017458;28;5497;-63
2022/09/07 08:40:56;;;;;;;;;;;;;;;23.90;45.91;100974.81;5009220;28;4163;-61
2022/09/07 08:43:25;;;;;;;;;;;;;;;23.88;45.92;100974.75;5007861;28;4237;-62
2022/09/07 08:45:53;;;;;;;;;;;;;;;23.80;46.34;100978.84;5015418;28;4328;-61
2022/09/07 08:48:22;;;;;;;;;;;;;;;23.76;46.56;100972.94;5044484;28;5260;-60
2022/09/07 08:50:55;;;;;;;;;;;;;;;23.69;45.98;100976.25;5034444;28;4562;-66
2022/09/07 08:53:23;;;;;;;;;;;;;;;23.57;45.99;100968.66;5044893;28;4113;-62
2022/09/07 08:55:57;;;;;;;;;;;;;;;23.50;46.60;100978.53;5027856;28;4189;-64
2022/09/07 08:58:42;;;;;;;;;;;;;;;23.69;46.37;100971.22;5026329;28;6654;-62
2022/09/07 09:01:19;;;;;;;;;;;;;;;23.37;46.69;100980.22;5028071;28;4172;-64
2022/09/07 09:04:03;;;;;;;;;;;;;;;23.33;46.45;100974.28;5039475;28;5381;-63
2022/09/07 09:07:07;;;;;;;;;;;;;;;23.36;46.45;100978.72;5027260;28;4335;-65
2022/09/07 09:09:52;;;;;;;;;;;;;;;23.34;46.70;100967.13;5031514;28;4296;-64
2022/09/07 09:12:38;;;;;;;;;;;;;;;23.39;46.90;100973.78;5030884;28;5258;-64
2022/09/07 09:15:16;;;;;;;;;;;;;;;23.38;46.81;100966.50;5032722;28;5253;-64
2022/09/07 09:17:44;;;;;;;;;;;;;;;23.38;46.77;100966.50;5032855;28;4228;-64
2022/09/07 09:20:18;;;;;;;;;;;;;;;23.40;46.83;100964.44;5019557;28;4390;-64
2022/09/07 09:22:45;;;;;;;;;;;;;;;23.39;46.92;100960.06;5033558;28;4276;-65
2022/09/07 09:25:14;;;;;;;;;;;;;;;23.40;46.62;100964.44;5032207;28;5353;-65
2022/09/07 09:27:40;;;;;;;;;;;;;;;23.38;47.07;100967.25;5027288;28;6580;-64
2022/09/07 09:30:14;;;;;;;;;;;;;;;23.35;46.96;100974.38;5030259;28;5367;-64
2022/09/07 09:32:41;;;;;;;;;;;;;;;23.38;46.85;100961.47;5022425;28;5280;-64
2022/09/07 09:35:16;;;;;;;;;;;;;;;23.39;47.22;100960.06;5029444;28;4217;-64
2022/09/07 09:37:42;;;;;;;;;;;;;;;23.39;47.21;100956.44;5031087;28;4332;-64
2022/09/07 09:40:22;;;;;;;;;;;;;;;23.40;47.36;100958.66;5016050;28;4265;-66
2022/09/07 09:42:57;;;;;;;;;;;;;;;23.55;48.62;100941.81;5026336;28;4315;-63
2022/09/07 09:45:23;;;;;;;;;;;;;;;23.46;47.87;100948.72;5032597;28;5532;-65
2022/09/07 09:47:50;;;;;;;;;;;;;;;23.39;48.01;100948.50;5031470;28;4218;-65
2022/09/07 09:50:19;;;;;;;;;;;;;;;23.40;47.99;100952.88;5035522;28;4223;-67
2022/09/07 09:53:05;;;;;;;;;;;;;;;23.41;48.33;100942.81;5045304;28;4309;-67
2022/09/07 09:55:34;;;;;;;;;;;;;;;23.44;48.50;100922.66;5043275;28;4246;-67
2022/09/07 09:58:03;;;;;;;;;;;;;;;23.42;48.30;100926.94;5050227;28;4428;-66
2022/09/07 10:00:57;;;;;;;;;;;;;;;23.42;48.29;100924.03;5046618;28;4265;-68
2022/09/07 10:03:43;;;;;;;;;;;;;;;23.59;51.41;100921.72;5037944;28;4222;-63
2022/09/07 10:06:29;;;;;;;;;;;;;;;23.62;49.80;100923.28;5030130;28;5182;-72
2022/09/07 10:08:59;;;;;;;;;;;;;;;23.60;49.95;100926.09;5034415;28;5434;-65
2022/09/07 10:11:52;;;;;;;;;;;;;;;23.61;49.07;100936.22;5026343;28;5000;-76
2022/09/07 10:14:43;;;;;;;;;;;;;;;23.49;49.04;100925.00;5037248;28;4016;-77
2022/09/07 10:17:11;;;;;;;;;;;;;;;23.73;52.81;100930.88;5030276;28;4056;-62
2022/09/07 10:19:37;;;;;;;;;;;;;;;23.58;49.75;100926.03;5029583;28;4531;-62
2022/09/07 10:22:17;;;;;;;;;;;;;;;23.54;49.62;100920.09;5041208;28;4234;-62
2022/09/07 10:24:43;;;;;;;;;;;;;;;23.52;49.47;100926.53;5051087;28;4176;-66
2022/09/07 10:27:28;;;;;;;;;;;;;;;23.45;50.02;100921.97;5033795;28;4604;-60
2022/09/07 10:29:54;;;;;;;;;;;;;;;23.47;50.14;100927.09;5030207;28;4217;-60
2022/09/07 10:32:30;;;;;;;;;;;;;;;23.44;49.58;100916.88;5034679;28;4244;-60
2022/09/07 10:35:04;;;;;;;;;;;;;;;23.38;49.72;100915.22;5036254;28;5564;-60
2022/09/07 10:37:43;;;;;;;;;;;;;;;23.38;49.75;100912.34;5036632;28;4257;-60
2022/09/07 10:40:15;;;;;;;;;;;;;;;23.36;49.76;100906.47;5031377;28;4125;-60
2022/09/07 10:42:45;;;;;;;;;;;;;;;23.35;49.89;100902.13;5054691;28;4246;-60
2022/09/07 10:45:40;;;;;;;;;;;;;;;23.37;49.70;100907.97;5051075;28;4187;-60
2022/09/07 10:48:16;;;;;;;;;;;;;;;23.38;49.55;100903.66;5035709;28;4189;-60
2022/09/07 10:50:50;;;;;;;;;;;;;;;23.39;49.49;100904.44;5052974;28;4266;-60
2022/09/07 10:53:31;;;;;;;;;;;;;;;23.40;49.33;100906.63;5014302;28;4212;-59
2022/09/07 10:56:14;;;;;;;;;;;;;;;23.42;49.33;100903.81;5019671;28;4190;-59
2022/09/07 10:58:49;;;;;;;;;;;;;;;23.44;49.07;100911.81;5024697;28;5846;-59
2022/09/07 11:01:37;;;;;;;;;;;;;;;23.46;49.07;100905.38;5043573;28;5499;-60
2022/09/07 11:04:25;;;;;;;;;;;;;;;23.46;49.26;100911.16;5049546;28;5421;-59
2022/09/07 11:06:53;;;;;;;;;;;;;;;23.48;49.21;100905.44;5034033;28;5063;-60
2022/09/07 11:09:38;;;;;;;;;;;;;;;23.47;49.15;100909.75;5011901;28;4170;-59
2022/09/07 11:12:17;;;;;;;;;;;;;;;23.47;48.85;100906.84;5013937;28;5296;-59
2022/09/07 11:14:45;;;;;;;;;;;;;;;23.46;48.95;100902.50;5046769;28;5293;-59
2022/09/07 11:17:16;;;;;;;;;;;;;;;23.44;49.21;100900.25;5015976;28;4198;-59
2022/09/07 11:19:52;;;;;;;;;;;;;;;23.44;49.17;100900.25;5014990;28;4045;-60
2022/09/07 11:22:27;;;;;;;;;;;;;;;23.45;49.19;100898.09;5051707;28;4541;-60
2022/09/07 11:25:03;;;;;;;;;;;;;;;23.44;48.94;100896.63;5034427;28;4983;-60
2022/09/07 11:28:02;;;;;;;;;;;;;;;23.42;49.15;100898.03;5049946;28;4251;-60
2022/09/07 11:30:30;;;;;;;;;;;;;;;23.42;49.12;100903.81;5052646;28;4135;-60
2022/09/07 11:33:03;;;;;;;;;;;;;;;23.44;48.92;100911.09;5052725;28;4158;-60
2022/09/07 11:35:31;;;;;;;;;;;;;;;23.43;49.21;100901.66;5038103;28;4266;-60
2022/09/07 11:37:59;;;;;;;;;;;;;;;23.41;49.09;100919.69;5052717;28;4056;-60
2022/09/07 11:40:44;;;;;;;;;;;;;;;23.40;49.17;100915.31;5054253;28;5487;-62
2022/09/07 11:43:16;;;;;;;;;;;;;;;23.41;49.21;100916.78;5034828;28;4487;-60
2022/09/07 11:45:44;;;;;;;;;;;;;;;23.41;49.08;100913.91;5051197;28;4311;-60
2022/09/07 11:48:12;;;;;;;;;;;;;;;23.40;49.19;100903.75;5044074;28;6251;-60
2022/09/07 11:50:46;;;;;;;;;;;;;;;23.41;49.24;100908.13;5050431;28;4133;-60
2022/09/07 11:53:23;;;;;;;;;;;;;;;23.40;49.10;100900.84;5048415;28;4333;-60
2022/09/07 11:55:52;;;;;;;;;;;;;;;23.40;49.03;100900.84;5051238;28;5408;-61
2022/09/07 11:58:28;;;;;;;;;;;;;;;23.41;49.14;100896.56;5037976;28;5215;-60
2022/09/07 12:00:59;;;;;;;;;;;;;;;23.41;49.18;100895.84;5036702;28;4230;-60
2022/09/07 12:03:36;;;;;;;;;;;;;;;23.41;49.25;100890.06;5052720;28;4056;-60
2022/09/07 12:06:22;;;;;;;;;;;;;;;23.41;49.23;100887.91;5052019;28;4171;-60
2022/09/07 12:09:03;;;;;;;;;;;;;;;23.41;49.18;100890.06;5037612;28;4360;-60
2022/09/07 12:11:36;;;;;;;;;;;;;;;23.41;49.22;100885.00;5051828;28;4059;-60
2022/09/07 12:14:14;;;;;;;;;;;;;;;23.41;49.26;100885.00;5036762;28;6306;-60
2022/09/07 12:16:55;;;;;;;;;;;;;;;23.41;49.24;100881.38;5036821;28;4329;-60
2022/09/07 12:19:22;;;;;;;;;;;;;;;23.40;49.05;100877.72;5044259;28;5629;-60
2022/09/07 12:21:51;;;;;;;;;;;;;;;23.40;49.01;100877.72;5048205;28;4245;-60
2022/09/07 12:24:36;;;;;;;;;;;;;;;23.38;49.31;100874.78;5017594;28;4138;-60
2022/09/07 12:27:10;;;;;;;;;;;;;;;23.40;49.15;100874.84;5017172;28;5119;-60
2022/09/07 12:29:36;;;;;;;;;;;;;;;23.39;49.48;100864.72;5016724;28;5315;-60
2022/09/07 12:32:02;;;;;;;;;;;;;;;23.40;49.36;100865.44;5046486;28;5227;-60
2022/09/07 12:34:52;;;;;;;;;;;;;;;23.39;49.46;100861.09;5013926;28;4427;-60
2022/09/07 12:37:29;;;;;;;;;;;;;;;23.40;49.39;100857.50;5016965;28;4200;-60
2022/09/07 12:40:14;;;;;;;;;;;;;;;23.38;49.44;100857.44;5044268;28;5019;-60
2022/09/07 12:42:40;;;;;;;;;;;;;;;23.39;49.36;100853.16;5011905;28;4192;-60
2022/09/07 12:45:26;;;;;;;;;;;;;;;23.39;49.21;100852.41;5010212;28;4212;-60
2022/09/07 12:47:56;;;;;;;;;;;;;;;23.39;49.17;100853.16;5014011;28;4211;-61
2022/09/07 12:50:26;;;;;;;;;;;;;;;23.39;49.36;100844.47;5016791;28;4230;-60
2022/09/07 12:53:06;;;;;;;;;;;;;;;23.39;49.35;100841.59;5040355;28;4246;-59
2022/09/07 12:55:39;;;;;;;;;;;;;;;23.40;49.25;100843.06;5017686;28;5503;-60
2022/09/07 12:58:30;;;;;;;;;;;;;;;23.39;49.38;100853.16;5029672;28;4175;-62
2022/09/07 13:00:59;;;;;;;;;;;;;;;23.41;49.52;100852.50;5040154;28;5530;-60
2022/09/07 13:03:41;;;;;;;;;;;;;;;23.40;49.31;100848.84;5033864;28;4199;-60
2022/09/07 13:06:19;;;;;;;;;;;;;;;23.41;49.52;100844.56;5038927;28;4360;-60
2022/09/07 13:09:18;;;;;;;;;;;;;;;23.44;50.04;100850.41;5040994;28;5369;-59